This is the latest recevied weather packets stored in our database for station/object WX8ASH-13. If no packets are shown the sender has not sent any weather packets the latest 10 day(s).
| Time | Temp. | Humidity | Pressure | Rain* | Wind** | Luminosity | Snow |
|---|---|---|---|---|---|---|---|
| 1777575336 | 10° C | 74% | 1015.5 hPa | 0.25 mm | - | - | - |
| 1777575036 | 10° C | 82% | 1015.5 hPa | 0.25 mm | - | - | - |
| 1777574735 | 9.44° C | 87% | 1015.4 hPa | 0.25 mm | - | - | - |
| 1777574435 | 9.44° C | 86% | 1015.5 hPa | 0.25 mm | - | - | - |
| 1777574134 | 9.44° C | 87% | 1015.5 hPa | 0.25 mm | - | - | - |
| 1777573834 | 8.89° C | 89% | 1015.5 hPa | 0.51 mm | - | - | - |
| 1777573534 | 8.33° C | 91% | 1015.6 hPa | 0.51 mm | - | - | - |
| 1777573234 | 7.78° C | 94% | 1015.7 hPa | 0.25 mm | - | - | - |
| 1777572935 | 7.22° C | 95% | 1015.7 hPa | 0.25 mm | - | - | - |
| 1777572633 | 6.67° C | 97% | 1015.7 hPa | 0.25 mm | - | - | - |
| 1777572333 | 6.67° C | 96% | 1015.8 hPa | 0.25 mm | - | - | - |
| 1777572033 | 6.11° C | 97% | 1016 hPa | 0.25 mm | - | - | - |
| 1777571733 | 6.11° C | 96% | 1016 hPa | 0.25 mm | - | - | - |
| 1777571433 | 6.11° C | 96% | 1016.1 hPa | 0.25 mm | - | - | - |
| 1777571134 | 6.11° C | 96% | 1016.2 hPa | 0.25 mm | - | - | - |
| 1777570833 | 6.67° C | 96% | 1016.2 hPa | 0.25 mm | - | - | - |
| 1777570533 | 6.67° C | 96% | 1016.2 hPa | 0.25 mm | - | - | - |
| 1777570232 | 6.11° C | 96% | 1016.2 hPa | 0 mm | - | - | - |
| 1777569932 | 6.11° C | 96% | 1016.2 hPa | 0 mm | - | - | - |
| 1777569632 | 6.11° C | 96% | 1016.2 hPa | 0 mm | - | - | - |
| 1777569332 | 6.11° C | 96% | 1016.2 hPa | 0 mm | - | - | - |
| 1777569032 | 6.11° C | 95% | 1016.2 hPa | 0 mm | - | - | - |
| 1777568733 | 7.22° C | 92% | 1016.3 hPa | 0 mm | - | - | - |
| 1777568432 | 7.78° C | 84% | 1016.1 hPa | 0 mm | - | - | - |
| 1777568131 | 8.33° C | 86% | 1015.8 hPa | 0 mm | - | - | - |
* Rain latest hour (hover to see other rain measurements)
** Current wind speed in m/s (hover to see current wind gust speed)